Time;durP1;ratioP1;P1;durP2;ratioP2;P2;SDS_P1;SDS_P2;PMS_P1;PMS_P2;Temp;Humidity;BMP_temperature;BMP_pressure;BME280_temperature;BME280_humidity;BME280_pressure;Samples;Min_cycle;Max_cycle;Signal;HPM_P1;HPM_P2
2023/06/24 00:01:55;;;;;;;16.90;12.47;;;16.80;99.90;;;;;;5186617;28;20187;-44
2023/06/24 00:04:25;;;;;;;16.23;12.60;;;16.80;99.90;;;;;;5192096;28;20533;-44
2023/06/24 00:06:59;;;;;;;19.97;13.33;;;16.80;99.90;;;;;;5206109;28;20549;-44
2023/06/24 00:09:30;;;;;;;13.93;12.43;;;16.80;99.90;;;;;;5190773;28;20607;-44
2023/06/24 00:12:02;;;;;;;15.30;11.50;;;16.80;99.90;;;;;;5188267;28;20443;-44
2023/06/24 00:14:32;;;;;;;14.20;11.40;;;16.80;99.90;;;;;;5203699;28;20661;-44
2023/06/24 00:17:04;;;;;;;17.00;13.17;;;16.80;99.90;;;;;;5185777;28;20484;-44
2023/06/24 00:19:35;;;;;;;21.10;12.97;;;16.80;99.90;;;;;;5198901;28;20195;-45
2023/06/24 00:22:06;;;;;;;16.43;12.13;;;16.80;99.90;;;;;;5197295;28;20435;-44
2023/06/24 00:24:37;;;;;;;13.47;12.07;;;16.80;99.90;;;;;;5156999;28;20489;-44
2023/06/24 00:27:08;;;;;;;26.40;14.70;;;16.70;99.90;;;;;;5163547;28;20207;-44
2023/06/24 00:29:38;;;;;;;23.00;13.10;;;16.70;99.90;;;;;;5203822;28;20259;-45
2023/06/24 00:32:09;;;;;;;22.77;14.77;;;16.60;99.90;;;;;;5205943;28;20283;-45
2023/06/24 00:34:43;;;;;;;18.43;14.30;;;16.60;99.90;;;;;;5199862;28;20675;-45
2023/06/24 00:37:14;;;;;;;21.50;16.53;;;16.50;99.90;;;;;;5207555;28;20482;-45
2023/06/24 00:39:45;;;;;;;21.47;15.37;;;16.50;99.90;;;;;;5185870;28;20462;-45
2023/06/24 00:42:16;;;;;;;19.23;14.07;;;16.50;99.90;;;;;;5187058;28;20445;-46
2023/06/24 00:44:48;;;;;;;30.53;17.43;;;16.40;99.90;;;;;;5206780;28;20795;-45
2023/06/24 00:47:18;;;;;;;22.57;17.00;;;16.40;99.90;;;;;;5188620;28;20454;-44
2023/06/24 00:49:50;;;;;;;29.53;18.23;;;16.40;99.90;;;;;;5202748;28;20434;-44
2023/06/24 00:52:21;;;;;;;24.63;17.70;;;16.40;99.90;;;;;;5191086;28;20199;-45
2023/06/24 00:54:52;;;;;;;33.20;20.23;;;16.40;99.90;;;;;;5199366;28;20497;-44
2023/06/24 00:57:25;;;;;;;32.87;19.90;;;16.30;99.90;;;;;;5204419;28;20226;-45
2023/06/24 00:59:59;;;;;;;23.60;17.43;;;16.30;99.90;;;;;;5187221;28;20206;-45
2023/06/24 01:02:32;;;;;;;37.73;19.80;;;16.30;99.90;;;;;;5200007;28;20496;-45
2023/06/24 01:05:07;;;;;;;29.30;18.57;;;16.30;99.90;;;;;;5209514;28;20421;-45
2023/06/24 01:07:39;;;;;;;25.87;17.53;;;16.30;99.90;;;;;;5192869;28;20529;-45
2023/06/24 01:10:12;;;;;;;29.03;20.20;;;16.30;99.90;;;;;;5181174;28;20445;-45
2023/06/24 01:12:44;;;;;;;27.60;19.20;;;16.20;99.90;;;;;;5199540;28;20441;-44
2023/06/24 01:15:15;;;;;;;31.67;18.87;;;16.20;99.90;;;;;;5202053;28;20501;-45
2023/06/24 01:17:57;;;;;;;29.93;19.10;;;16.20;99.90;;;;;;5185831;28;20447;-44
2023/06/24 01:20:56;;;;;;;22.20;17.43;;;16.10;99.90;;;;;;5205849;28;20423;-45
2023/06/24 01:23:52;;;;;;;31.50;20.10;;;16.10;99.90;;;;;;5196034;28;20425;-45
2023/06/24 01:26:43;;;;;;;27.37;18.07;;;16.00;99.90;;;;;;5193963;28;20633;-44
2023/06/24 01:29:51;;;;;;;32.13;20.53;;;16.00;99.90;;;;;;5207575;28;20422;-45
2023/06/24 01:32:37;;;;;;;30.73;18.93;;;15.90;99.90;;;;;;5204717;28;20421;-44
2023/06/24 01:35:20;;;;;;;24.73;17.30;;;15.90;99.90;;;;;;5193347;28;20469;-43
2023/06/24 01:37:54;;;;;;;24.37;16.53;;;15.90;99.90;;;;;;5192255;28;20556;-50
2023/06/24 01:40:34;;;;;;;23.20;16.47;;;15.80;99.90;;;;;;5206983;28;20527;-44
2023/06/24 01:43:08;;;;;;;23.87;17.10;;;15.80;99.90;;;;;;5202528;28;20438;-44
2023/06/24 01:45:52;;;;;;;24.10;18.43;;;15.80;99.90;;;;;;5190286;28;20530;-43
2023/06/24 01:48:27;;;;;;;28.60;18.77;;;15.80;99.90;;;;;;5205712;28;20507;-44
2023/06/24 01:51:01;;;;;;;25.70;16.87;;;15.70;99.90;;;;;;5192109;28;20445;-45
2023/06/24 01:53:36;;;;;;;29.90;17.27;;;15.70;99.90;;;;;;5198562;28;20453;-44
2023/06/24 01:56:10;;;;;;;19.57;16.03;;;15.70;99.90;;;;;;5205537;28;20454;-44
2023/06/24 01:58:43;;;;;;;23.87;18.37;;;15.70;99.90;;;;;;5186570;28;20551;-44
2023/06/24 02:01:15;;;;;;;25.87;15.40;;;15.70;99.90;;;;;;5208103;28;20525;-45
2023/06/24 02:03:47;;;;;;;26.80;17.13;;;15.70;99.90;;;;;;5189718;28;20848;-44
2023/06/24 02:06:21;;;;;;;23.20;17.93;;;15.70;99.90;;;;;;5201540;28;20447;-45
2023/06/24 02:08:53;;;;;;;27.03;17.03;;;15.70;99.90;;;;;;5190267;28;20821;-45
2023/06/24 02:11:26;;;;;;;25.43;16.70;;;15.60;99.90;;;;;;5193798;28;20450;-44
2023/06/24 02:14:00;;;;;;;24.17;15.50;;;15.60;99.90;;;;;;5191061;28;20462;-44
2023/06/24 02:16:34;;;;;;;24.73;16.53;;;15.60;99.90;;;;;;5189600;28;20783;-44
2023/06/24 02:19:07;;;;;;;21.37;15.67;;;15.60;99.90;;;;;;5200261;28;20446;-44
2023/06/24 02:21:40;;;;;;;23.70;14.57;;;15.60;99.90;;;;;;5199490;28;20443;-44
2023/06/24 02:24:11;;;;;;;22.30;15.97;;;15.60;99.90;;;;;;5203229;28;20447;-45
2023/06/24 02:26:42;;;;;;;27.53;14.10;;;15.60;99.90;;;;;;5207472;28;20904;-44
2023/06/24 02:29:13;;;;;;;18.10;14.30;;;15.60;99.90;;;;;;5209311;28;20484;-44
2023/06/24 02:31:44;;;;;;;20.73;13.47;;;15.60;99.90;;;;;;5207830;28;20195;-45
2023/06/24 02:34:16;;;;;;;19.30;14.10;;;15.60;99.90;;;;;;5205126;28;20467;-45
2023/06/24 02:36:46;;;;;;;16.70;12.90;;;15.60;99.90;;;;;;5167509;28;20283;-44
2023/06/24 02:39:17;;;;;;;19.53;13.70;;;15.60;99.90;;;;;;5203792;28;21073;-44
2023/06/24 02:41:49;;;;;;;21.00;14.27;;;15.60;99.90;;;;;;5190335;28;20714;-45
2023/06/24 02:44:20;;;;;;;21.30;13.97;;;15.60;99.90;;;;;;5176752;28;20434;-45
2023/06/24 02:46:53;;;;;;;23.03;14.07;;;15.60;99.90;;;;;;5188702;28;20985;-43
2023/06/24 02:49:24;;;;;;;19.07;13.67;;;15.50;99.90;;;;;;5183991;28;20289;-44
2023/06/24 02:51:55;;;;;;;25.70;14.43;;;15.50;99.90;;;;;;5202576;28;20500;-44
2023/06/24 02:54:26;;;;;;;15.53;12.90;;;15.50;99.90;;;;;;5200320;28;20854;-44
2023/06/24 02:56:58;;;;;;;17.43;12.90;;;15.50;99.90;;;;;;5203444;28;20205;-44
2023/06/24 02:59:29;;;;;;;17.63;12.43;;;15.50;99.90;;;;;;5183742;28;20426;-43
2023/06/24 03:02:03;;;;;;;17.77;12.80;;;15.40;99.90;;;;;;5186226;28;20429;-50
2023/06/24 03:04:34;;;;;;;17.27;12.70;;;15.40;99.90;;;;;;5202611;28;20253;-44
2023/06/24 03:07:06;;;;;;;19.87;13.20;;;15.40;99.90;;;;;;5162153;28;20458;-46
2023/06/24 03:09:37;;;;;;;19.40;12.70;;;15.40;99.90;;;;;;5200903;28;20803;-44
2023/06/24 03:12:08;;;;;;;17.13;13.10;;;15.40;99.90;;;;;;5177728;28;20902;-44
2023/06/24 03:14:39;;;;;;;18.43;13.03;;;15.50;99.90;;;;;;5203422;28;20466;-44
2023/06/24 03:17:10;;;;;;;18.50;10.73;;;15.60;99.90;;;;;;5176151;28;20940;-44
2023/06/24 03:19:45;;;;;;;15.13;12.77;;;15.60;99.90;;;;;;5177038;28;20183;-45
2023/06/24 03:22:19;;;;;;;22.73;11.80;;;15.60;99.90;;;;;;5187113;28;20776;-45
2023/06/24 03:24:52;;;;;;;14.97;11.50;;;15.60;99.90;;;;;;5198977;28;20442;-44
2023/06/24 03:27:23;;;;;;;14.07;11.90;;;15.60;99.90;;;;;;5188183;28;20470;-44
2023/06/24 03:29:54;;;;;;;18.97;12.57;;;15.70;99.90;;;;;;5204683;28;20509;-45
2023/06/24 03:32:24;;;;;;;18.03;12.17;;;15.70;99.90;;;;;;5207450;28;20640;-45
2023/06/24 03:34:55;;;;;;;13.33;11.23;;;15.80;99.90;;;;;;5195624;28;20313;-44
2023/06/24 03:37:25;;;;;;;16.43;12.60;;;15.80;99.90;;;;;;5204026;28;20255;-45
2023/06/24 03:39:56;;;;;;;12.57;10.63;;;15.80;99.90;;;;;;5203440;28;20613;-44
2023/06/24 03:42:29;;;;;;;13.50;11.30;;;15.80;99.90;;;;;;5196504;28;20242;-44
2023/06/24 03:45:00;;;;;;;14.43;10.37;;;15.80;99.90;;;;;;5204911;28;20443;-44
2023/06/24 03:47:30;;;;;;;15.93;11.13;;;15.90;99.90;;;;;;5186262;28;21053;-44
2023/06/24 03:50:01;;;;;;;19.30;11.43;;;15.90;99.90;;;;;;5189611;28;20553;-44
2023/06/24 03:52:32;;;;;;;25.67;12.63;;;15.90;99.90;;;;;;5198451;28;20195;-44
2023/06/24 03:55:04;;;;;;;12.70;11.10;;;15.80;99.90;;;;;;5189586;28;20241;-44
2023/06/24 03:57:35;;;;;;;16.87;10.47;;;15.80;99.90;;;;;;5176892;28;20204;-45
2023/06/24 04:00:16;;;;;;;11.73;10.53;;;15.80;99.90;;;;;;5197564;28;20438;-44
2023/06/24 04:02:47;;;;;;;15.27;10.90;;;15.80;99.90;;;;;;5205802;28;20179;-43
2023/06/24 04:05:18;;;;;;;18.80;11.37;;;16.00;99.90;;;;;;5183426;28;20921;-44
2023/06/24 04:07:50;;;;;;;11.27;10.17;;;16.10;99.90;;;;;;5195704;28;20212;-44
2023/06/24 04:10:21;;;;;;;12.77;9.97;;;16.30;99.90;;;;;;5194798;28;20185;-44
2023/06/24 04:12:52;;;;;;;11.67;9.43;;;16.50;99.90;;;;;;5206311;28;20434;-44
2023/06/24 04:15:23;;;;;;;12.50;10.40;;;16.40;99.90;;;;;;5206937;28;20215;-44
2023/06/24 04:17:54;;;;;;;19.70;10.47;;;16.30;99.90;;;;;;5200316;28;20196;-43
2023/06/24 04:20:25;;;;;;;11.20;10.10;;;16.20;99.90;;;;;;5173905;28;20509;-44
2023/06/24 04:22:55;;;;;;;16.23;12.33;;;16.10;99.90;;;;;;5196735;28;20180;-44
2023/06/24 04:25:26;;;;;;;10.27;9.23;;;16.00;99.90;;;;;;5193681;28;20187;-44
2023/06/24 04:27:57;;;;;;;16.47;10.50;;;16.00;99.90;;;;;;5207594;28;20226;-44
2023/06/24 04:30:28;;;;;;;11.20;9.80;;;16.00;99.90;;;;;;5194966;28;20241;-44
2023/06/24 04:32:58;;;;;;;19.23;9.47;;;16.20;99.90;;;;;;5197675;28;20191;-44
2023/06/24 04:35:30;;;;;;;13.57;9.27;;;16.30;99.90;;;;;;5203686;28;20298;-44
2023/06/24 04:38:01;;;;;;;16.77;9.70;;;16.40;99.90;;;;;;5189767;28;20214;-43
2023/06/24 04:40:31;;;;;;;12.90;9.73;;;16.50;99.90;;;;;;5201679;28;20450;-43
2023/06/24 04:43:02;;;;;;;12.50;9.70;;;16.90;99.90;;;;;;5187419;28;20628;-41
2023/06/24 04:45:34;;;;;;;13.03;9.60;;;17.10;99.90;;;;;;5187540;28;20188;-43
2023/06/24 04:48:05;;;;;;;13.90;10.53;;;17.40;99.90;;;;;;5199746;28;20680;-43
2023/06/24 04:50:36;;;;;;;14.30;9.77;;;17.90;99.90;;;;;;5202547;28;20518;-43
2023/06/24 04:53:07;;;;;;;10.37;9.17;;;18.20;99.90;;;;;;5201931;28;20526;-43
2023/06/24 04:55:37;;;;;;;11.70;8.83;;;18.70;99.90;;;;;;5207961;28;20218;-43
2023/06/24 04:58:08;;;;;;;10.40;9.00;;;19.00;99.90;;;;;;5188522;28;20210;-43
2023/06/24 05:00:39;;;;;;;10.37;9.37;;;19.70;99.90;;;;;;5201955;28;20603;-43
2023/06/24 05:03:10;;;;;;;8.73;7.47;;;20.10;99.90;;;;;;5182758;28;20255;-43
2023/06/24 05:05:40;;;;;;;9.00;7.23;;;20.40;99.90;;;;;;5197784;28;20218;-42
2023/06/24 05:08:11;;;;;;;9.67;7.73;;;20.60;99.90;;;;;;5205260;28;20211;-44
2023/06/24 05:10:42;;;;;;;11.90;6.50;;;21.10;99.90;;;;;;5161920;28;20195;-43
2023/06/24 05:13:12;;;;;;;13.87;6.73;;;21.80;99.90;;;;;;5186280;28;20195;-43
2023/06/24 05:15:43;;;;;;;12.00;6.50;;;22.70;99.90;;;;;;5186452;28;20266;-43
2023/06/24 05:18:14;;;;;;;16.97;6.70;;;23.70;99.90;;;;;;5202756;28;20212;-44
2023/06/24 05:20:44;;;;;;;8.40;7.10;;;24.60;99.90;;;;;;5191152;28;20269;-42
2023/06/24 05:23:15;;;;;;;9.60;6.33;;;24.90;99.90;;;;;;5195348;28;20520;-43
2023/06/24 05:25:46;;;;;;;8.53;6.30;;;25.60;99.90;;;;;;5205385;28;20214;-41
2023/06/24 05:28:16;;;;;;;17.80;7.80;;;26.00;98.60;;;;;;5204595;28;20668;-42
2023/06/24 05:30:47;;;;;;;6.40;5.70;;;26.20;95.40;;;;;;5177563;28;20339;-42
2023/06/24 05:33:17;;;;;;;7.90;6.10;;;26.50;93.80;;;;;;5189123;28;20180;-42
2023/06/24 05:35:49;;;;;;;7.00;6.10;;;27.70;93.00;;;;;;5210348;28;20216;-42
2023/06/24 05:38:20;;;;;;;6.57;5.90;;;28.70;84.70;;;;;;5190172;28;20219;-42
2023/06/24 05:40:50;;;;;;;8.30;5.73;;;29.00;74.40;;;;;;5205954;28;20445;-43
2023/06/24 05:43:21;;;;;;;6.70;6.00;;;28.70;67.90;;;;;;5209788;28;20648;-43
2023/06/24 05:45:52;;;;;;;6.53;5.17;;;28.50;68.30;;;;;;5207557;28;20661;-42
2023/06/24 05:48:22;;;;;;;5.63;5.10;;;28.70;67.30;;;;;;5190463;28;20208;-43
2023/06/24 05:50:53;;;;;;;7.63;6.00;;;27.90;65.30;;;;;;5197158;28;20269;-42
2023/06/24 05:53:24;;;;;;;6.37;5.77;;;28.60;67.60;;;;;;5196534;28;20722;-43
2023/06/24 05:55:55;;;;;;;6.90;5.57;;;29.40;62.30;;;;;;5191106;28;20215;-42
2023/06/24 05:58:25;;;;;;;7.37;5.93;;;30.30;62.90;;;;;;5196055;28;20474;-42
2023/06/24 06:00:56;;;;;;;6.53;4.67;;;31.30;57.60;;;;;;5209993;28;20183;-43
2023/06/24 06:03:27;;;;;;;21.03;4.73;;;31.50;54.30;;;;;;5214098;28;20624;-42
2023/06/24 06:05:57;;;;;;;5.10;4.60;;;31.40;54.50;;;;;;5197659;28;20199;-42
2023/06/24 06:08:28;;;;;;;5.40;4.90;;;32.20;52.80;;;;;;5205999;28;20264;-42
2023/06/24 06:11:02;;;;;;;7.03;5.77;;;32.00;51.30;;;;;;5194945;28;20551;-43
2023/06/24 06:13:33;;;;;;;9.37;5.13;;;29.60;53.70;;;;;;5154042;28;20188;-42
2023/06/24 06:16:04;;;;;;;10.33;5.47;;;27.90;57.50;;;;;;5187878;28;20553;-43
2023/06/24 06:18:35;;;;;;;5.23;4.33;;;28.20;59.30;;;;;;5186214;28;20511;-43
2023/06/24 06:21:05;;;;;;;5.17;4.67;;;29.60;58.00;;;;;;5217146;28;20409;-43
2023/06/24 06:23:36;;;;;;;8.47;5.10;;;31.60;55.10;;;;;;5187512;28;20521;-43
2023/06/24 06:26:07;;;;;;;3.77;3.43;;;33.10;51.90;;;;;;5215440;28;20701;-43
2023/06/24 06:28:38;;;;;;;6.30;4.40;;;34.20;49.20;;;;;;5202565;28;20598;-42
2023/06/24 06:31:08;;;;;;;4.83;4.33;;;34.90;45.00;;;;;;5184449;28;20179;-43
2023/06/24 06:33:43;;;;;;;4.90;4.43;;;35.30;46.30;;;;;;5170591;28;20346;-43
2023/06/24 06:36:14;;;;;;;6.50;4.43;;;36.00;44.30;;;;;;5191465;28;20582;-44
2023/06/24 06:38:44;;;;;;;5.38;4.07;;;36.70;42.60;;;;;;5218150;28;20205;-42
2023/06/24 06:41:15;;;;;;;4.68;4.32;;;36.20;39.50;;;;;;5189149;28;20194;-42
2023/06/24 06:43:46;;;;;;;9.90;5.40;;;35.20;42.50;;;;;;5203548;28;20175;-42
2023/06/24 06:46:17;;;;;;;9.70;3.90;;;35.40;41.80;;;;;;5202220;28;20238;-42
2023/06/24 06:48:48;;;;;;;5.10;4.40;;;35.50;42.90;;;;;;5202436;28;20207;-42
2023/06/24 06:51:18;;;;;;;5.97;4.57;;;35.50;40.60;;;;;;5198999;28;20187;-42
2023/06/24 06:53:49;;;;;;;4.53;4.13;;;35.40;42.40;;;;;;5175446;28;20179;-42
2023/06/24 06:56:26;;;;;;;5.65;3.78;;;35.60;42.90;;;;;;5205459;28;20282;-43
2023/06/24 06:58:57;;;;;;;4.78;3.90;;;36.20;41.00;;;;;;5195922;28;20364;-45
2023/06/24 07:01:28;;;;;;;4.43;4.03;;;35.00;40.70;;;;;;5195729;28;20283;-43
2023/06/24 07:03:59;;;;;;;4.77;4.33;;;33.00;43.20;;;;;;5188487;28;20219;-44
2023/06/24 07:06:32;;;;;;;6.97;4.90;;;32.80;44.80;;;;;;5207307;28;20191;-43
2023/06/24 07:09:03;;;;;;;7.13;4.30;;;33.80;43.00;;;;;;5212334;28;20571;-43
2023/06/24 07:11:34;;;;;;;6.67;4.83;;;32.90;43.40;;;;;;5209590;28;20201;-44
2023/06/24 07:14:04;;;;;;;2.90;2.80;;;32.90;42.60;;;;;;5210032;28;20175;-43
2023/06/24 07:16:36;;;;;;;4.60;4.30;;;33.80;44.60;;;;;;5211480;28;20533;-43
2023/06/24 07:19:07;;;;;;;4.38;4.05;;;35.10;41.90;;;;;;5207090;28;20190;-43
2023/06/24 07:21:38;;;;;;;3.92;3.63;;;35.00;41.20;;;;;;5194893;28;20671;-43
2023/06/24 07:24:09;;;;;;;6.10;4.20;;;33.90;42.30;;;;;;5179699;28;20644;-43
2023/06/24 07:26:40;;;;;;;5.60;4.68;;;33.60;42.10;;;;;;5212979;28;20253;-43
2023/06/24 07:29:10;;;;;;;8.00;4.05;;;33.60;41.10;;;;;;5208528;28;20206;-50
2023/06/24 07:31:41;;;;;;;3.83;3.63;;;34.30;41.70;;;;;;5208252;28;20668;-42
2023/06/24 07:34:12;;;;;;;4.40;4.03;;;33.80;41.90;;;;;;5204052;28;20180;-43
2023/06/24 07:36:43;;;;;;;6.80;4.03;;;32.40;43.80;;;;;;5190701;28;20184;-43
2023/06/24 07:39:15;;;;;;;6.37;4.17;;;30.30;46.40;;;;;;5206177;28;20194;-42
2023/06/24 07:41:46;;;;;;;4.40;4.07;;;28.60;51.10;;;;;;5167018;28;20183;-42
2023/06/24 07:44:16;;;;;;;4.93;3.90;;;29.90;50.40;;;;;;5211300;28;20919;-43
2023/06/24 07:46:48;;;;;;;4.43;4.07;;;32.00;44.90;;;;;;5208454;28;20178;-43
2023/06/24 07:49:18;;;;;;;4.10;3.37;;;33.70;42.00;;;;;;5192275;28;20278;-44
2023/06/24 07:51:49;;;;;;;3.70;3.47;;;33.50;41.00;;;;;;5206467;28;20285;-43
2023/06/24 07:54:20;;;;;;;4.03;3.70;;;32.60;41.60;;;;;;5211230;28;20174;-43
2023/06/24 07:56:55;;;;;;;3.10;2.90;;;32.10;45.00;;;;;;5179521;28;20194;-43
2023/06/24 07:59:26;;;;;;;17.13;3.00;;;33.20;41.70;;;;;;5201397;28;20273;-42
2023/06/24 08:01:56;;;;;;;5.90;3.17;;;32.90;41.20;;;;;;5206688;28;20211;-43
2023/06/24 08:04:27;;;;;;;3.03;2.70;;;33.50;41.80;;;;;;5204005;28;20282;-43
2023/06/24 08:07:07;;;;;;;3.17;2.97;;;33.20;41.40;;;;;;5198613;28;20652;-43
2023/06/24 08:09:38;;;;;;;6.83;3.67;;;31.40;41.80;;;;;;5178514;28;20615;-43
2023/06/24 08:12:09;;;;;;;6.60;3.13;;;30.20;43.90;;;;;;5193891;28;20480;-43
2023/06/24 08:14:40;;;;;;;5.30;4.13;;;31.70;43.90;;;;;;5193413;28;20211;-43
2023/06/24 08:17:11;;;;;;;3.40;3.20;;;33.50;40.90;;;;;;5193725;28;20214;-43
2023/06/24 08:19:41;;;;;;;6.03;4.00;;;33.40;40.20;;;;;;5195431;28;20262;-42
2023/06/24 08:22:12;;;;;;;5.10;3.13;;;31.10;42.40;;;;;;5192189;28;20235;-43
2023/06/24 08:24:43;;;;;;;2.97;2.87;;;30.90;44.30;;;;;;5190424;28;20904;-41
2023/06/24 08:27:14;;;;;;;3.83;3.30;;;32.70;41.90;;;;;;5189852;28;20207;-43
2023/06/24 08:29:44;;;;;;;7.00;3.07;;;34.00;39.20;;;;;;5202350;28;20197;-43
2023/06/24 08:32:15;;;;;;;3.28;3.00;;;34.70;38.20;;;;;;5190544;28;20191;-42
2023/06/24 08:34:46;;;;;;;2.90;2.78;;;35.10;37.70;;;;;;5197958;28;20203;-43
2023/06/24 08:37:17;;;;;;;2.83;2.73;;;33.00;38.80;;;;;;5202106;28;20214;-43
2023/06/24 08:39:48;;;;;;;17.17;3.87;;;33.50;40.60;;;;;;5206186;28;20194;-43
2023/06/24 08:42:18;;;;;;;3.67;3.37;;;34.10;38.40;;;;;;5192833;28;20241;-43
2023/06/24 08:44:49;;;;;;;3.85;3.28;;;34.50;37.60;;;;;;5187550;28;20558;-42
2023/06/24 08:47:24;;;;;;;4.75;3.20;;;34.50;37.50;;;;;;5203875;28;20242;-43
2023/06/24 08:50:10;;;;;;;3.70;3.50;;;33.90;38.10;;;;;;5196900;28;20194;-42
2023/06/24 08:52:46;;;;;;;3.67;3.37;;;33.30;38.30;;;;;;5186441;28;20569;-43
2023/06/24 08:55:20;;;;;;;3.27;3.07;;;30.40;40.60;;;;;;5189649;28;20365;-43
2023/06/24 08:57:51;;;;;;;3.23;2.93;;;28.00;45.30;;;;;;5189111;28;20264;-44
2023/06/24 09:00:22;;;;;;;6.03;3.43;;;26.50;49.00;;;;;;5218897;28;20421;-43
2023/06/24 09:02:52;;;;;;;10.53;3.67;;;25.40;50.50;;;;;;5202412;28;20186;-43
2023/06/24 09:05:23;;;;;;;4.53;4.03;;;24.70;53.00;;;;;;5200447;28;20437;-43
2023/06/24 09:07:54;;;;;;;13.90;3.33;;;24.20;55.30;;;;;;5197523;28;20216;-44
2023/06/24 09:10:31;;;;;;;4.83;4.23;;;24.50;55.10;;;;;;5205219;28;20179;-43
2023/06/24 09:13:04;;;;;;;3.53;3.23;;;24.30;55.80;;;;;;5190899;28;20210;-43
2023/06/24 09:15:36;;;;;;;4.10;3.80;;;24.30;56.90;;;;;;5194355;28;20835;-43
2023/06/24 09:18:07;;;;;;;15.97;4.27;;;24.90;56.60;;;;;;5190623;28;20800;-43
2023/06/24 09:20:45;;;;;;;5.03;3.27;;;24.90;53.10;;;;;;5205130;28;20434;-43
2023/06/24 09:23:16;;;;;;;3.97;3.60;;;24.80;53.30;;;;;;5203411;28;20218;-44
2023/06/24 09:25:58;;;;;;;3.90;3.60;;;24.60;54.60;;;;;;5201771;28;20445;-44
2023/06/24 09:28:29;;;;;;;3.87;3.57;;;23.80;55.20;;;;;;5180501;28;20474;-43
2023/06/24 09:31:11;;;;;;;4.27;3.87;;;23.90;57.00;;;;;;5198538;28;20461;-43
2023/06/24 09:33:42;;;;;;;4.03;3.73;;;23.40;56.40;;;;;;5221288;28;20190;-44
2023/06/24 09:36:14;;;;;;;9.13;4.20;;;23.40;58.80;;;;;;5219901;28;20458;-42
2023/06/24 09:38:45;;;;;;;4.37;3.97;;;23.70;57.40;;;;;;5205963;28;20207;-43
2023/06/24 09:41:16;;;;;;;5.37;3.90;;;23.40;55.60;;;;;;5199992;28;20435;-43
2023/06/24 09:43:47;;;;;;;4.50;3.90;;;23.30;57.00;;;;;;5193282;28;20681;-44
2023/06/24 09:46:18;;;;;;;3.80;3.50;;;23.40;56.60;;;;;;5188301;28;20525;-43
2023/06/24 09:48:49;;;;;;;4.10;3.80;;;23.20;56.20;;;;;;5192203;28;20612;-43
2023/06/24 09:51:24;;;;;;;6.70;6.07;;;23.10;58.00;;;;;;5192678;28;20494;-43
2023/06/24 09:53:57;;;;;;;5.60;4.17;;;23.30;58.80;;;;;;5203509;28;20215;-43
2023/06/24 09:56:31;;;;;;;3.77;2.97;;;23.50;57.80;;;;;;5203633;28;20457;-44
2023/06/24 09:59:04;;;;;;;4.43;4.03;;;23.50;56.90;;;;;;5201086;28;20451;-45
2023/06/24 10:01:43;;;;;;;4.00;3.70;;;23.20;58.00;;;;;;5211332;28;20493;-42
2023/06/24 10:04:18;;;;;;;8.60;4.33;;;23.10;56.50;;;;;;5213728;28;20434;-43
2023/06/24 10:06:50;;;;;;;4.23;3.17;;;23.00;56.80;;;;;;5210339;28;20537;-44
2023/06/24 10:09:21;;;;;;;2.50;2.30;;;23.10;57.60;;;;;;5200325;28;20426;-43
2023/06/24 10:11:51;;;;;;;3.60;3.30;;;23.20;57.30;;;;;;5191962;28;20456;-45
2023/06/24 10:14:22;;;;;;;3.33;3.00;;;23.30;57.70;;;;;;5203216;28;20180;-43
2023/06/24 10:17:04;;;;;;;2.70;2.53;;;23.30;56.90;;;;;;5200914;28;20180;-44
2023/06/24 10:19:41;;;;;;;14.47;3.83;;;23.20;55.70;;;;;;5198405;28;20176;-44
2023/06/24 10:22:12;;;;;;;4.77;3.30;;;23.00;55.70;;;;;;5204692;28;20522;-43
2023/06/24 10:24:46;;;;;;;3.30;3.13;;;22.80;56.60;;;;;;5193155;28;20529;-43
2023/06/24 10:27:23;;;;;;;3.20;2.90;;;22.90;57.90;;;;;;5205030;28;20267;-44
2023/06/24 10:29:58;;;;;;;3.67;3.33;;;22.80;57.10;;;;;;5193853;28;20432;-43
2023/06/24 10:32:41;;;;;;;5.37;3.27;;;22.60;58.00;;;;;;5192215;28;20456;-43
2023/06/24 10:35:31;;;;;;;4.63;4.23;;;22.50;58.90;;;;;;5200795;28;20874;-44
2023/06/24 10:38:02;;;;;;;6.77;3.47;;;22.60;59.30;;;;;;5187673;28;20558;-43
2023/06/24 10:40:42;;;;;;;3.40;3.10;;;22.70;59.80;;;;;;5191815;28;20501;-44
2023/06/24 10:43:27;;;;;;;3.37;3.23;;;22.80;59.70;;;;;;5188587;28;20176;-44
2023/06/24 10:45:59;;;;;;;3.10;2.90;;;22.90;59.80;;;;;;5188597;28;20489;-44
2023/06/24 10:48:29;;;;;;;6.80;4.60;;;23.00;59.10;;;;;;5205601;28;20429;-43
2023/06/24 10:51:00;;;;;;;3.50;3.30;;;23.00;59.50;;;;;;5183877;28;20434;-43
2023/06/24 10:53:31;;;;;;;5.40;3.70;;;22.90;58.80;;;;;;5211189;28;20180;-43
2023/06/24 10:56:02;;;;;;;3.77;3.47;;;22.60;59.80;;;;;;5189151;28;20394;-43
2023/06/24 10:58:33;;;;;;;3.40;3.27;;;22.70;60.10;;;;;;5206373;28;20537;-43
2023/06/24 11:01:08;;;;;;;3.57;3.37;;;22.50;60.40;;;;;;5189550;28;20419;-43
2023/06/24 11:03:41;;;;;;;3.93;3.63;;;22.50;60.40;;;;;;5201247;28;20626;-43
2023/06/24 11:06:14;;;;;;;6.83;3.80;;;22.60;60.30;;;;;;5192573;28;20529;-43
2023/06/24 11:08:45;;;;;;;4.27;3.13;;;22.60;60.40;;;;;;5183699;28;20458;-44
2023/06/24 11:11:21;;;;;;;3.80;3.20;;;22.60;61.70;;;;;;5198582;28;20518;-44
2023/06/24 11:13:52;;;;;;;6.43;4.33;;;22.70;60.80;;;;;;5211349;28;20797;-44
2023/06/24 11:16:22;;;;;;;4.33;3.90;;;22.70;61.00;;;;;;5202223;28;20557;-44
2023/06/24 11:19:00;;;;;;;6.23;3.33;;;22.70;60.30;;;;;;5209626;28;20270;-47
2023/06/24 11:21:31;;;;;;;3.60;3.30;;;22.70;60.60;;;;;;5190906;28;20187;-43
2023/06/24 11:24:05;;;;;;;4.40;4.00;;;22.70;61.20;;;;;;5201283;28;20801;-42
2023/06/24 11:26:36;;;;;;;4.77;4.30;;;22.80;60.80;;;;;;5192599;28;20176;-44
2023/06/24 11:29:13;;;;;;;4.23;3.83;;;22.90;60.00;;;;;;5200144;28;20438;-44
2023/06/24 11:31:45;;;;;;;6.43;3.90;;;22.90;60.90;;;;;;5207397;28;20183;-43
2023/06/24 11:34:16;;;;;;;4.07;3.77;;;23.00;61.80;;;;;;5201029;28;20490;-43
2023/06/24 11:36:48;;;;;;;3.80;3.40;;;23.20;60.90;;;;;;5209986;28;20413;-43
2023/06/24 11:39:27;;;;;;;4.97;4.10;;;23.00;59.40;;;;;;5196047;28;20482;-43
2023/06/24 11:41:58;;;;;;;3.53;3.23;;;23.00;59.50;;;;;;5185711;28;20864;-43
2023/06/24 11:44:34;;;;;;;3.40;3.10;;;23.00;60.10;;;;;;5191526;28;20442;-44
2023/06/24 11:47:09;;;;;;;4.53;3.30;;;23.00;60.10;;;;;;5200597;28;20553;-43
2023/06/24 11:49:54;;;;;;;4.00;3.70;;;23.20;59.90;;;;;;5186791;28;20445;-43
2023/06/24 11:52:35;;;;;;;4.33;3.50;;;23.30;59.70;;;;;;5185487;28;20907;-42
2023/06/24 11:55:23;;;;;;;3.70;3.50;;;23.20;58.30;;;;;;5207505;28;20497;-44
2023/06/24 11:57:58;;;;;;;3.70;3.40;;;23.20;57.80;;;;;;5207904;28;20442;-44
2023/06/24 12:00:36;;;;;;;4.43;3.93;;;23.10;58.70;;;;;;5202934;28;20430;-45
2023/06/24 12:03:09;;;;;;;3.13;3.00;;;23.10;58.90;;;;;;5199960;28;20430;-43
2023/06/24 12:05:44;;;;;;;8.00;4.07;;;23.30;59.00;;;;;;5217144;28;20434;-44
2023/06/24 12:08:15;;;;;;;4.10;2.80;;;23.30;58.80;;;;;;5184822;28;20455;-43
2023/06/24 12:10:46;;;;;;;6.43;2.97;;;23.40;57.90;;;;;;5200226;28;20460;-46
2023/06/24 12:13:17;;;;;;;3.70;3.40;;;23.50;58.50;;;;;;5210572;28;20669;-44
2023/06/24 12:15:50;;;;;;;4.50;3.57;;;23.60;57.70;;;;;;5210291;28;20462;-43
2023/06/24 12:18:21;;;;;;;6.50;3.00;;;23.70;57.80;;;;;;5209053;28;20591;-43
2023/06/24 12:20:52;;;;;;;6.43;3.63;;;23.70;58.10;;;;;;5202122;28;20445;-46
2023/06/24 12:23:22;;;;;;;3.83;3.43;;;23.90;58.20;;;;;;5198366;28;20191;-45
2023/06/24 12:25:53;;;;;;;3.50;2.90;;;23.90;57.60;;;;;;5185885;28;20543;-44
2023/06/24 12:28:24;;;;;;;4.87;3.30;;;23.90;57.40;;;;;;5205727;28;20553;-45
2023/06/24 12:30:55;;;;;;;3.03;2.83;;;23.90;56.30;;;;;;5201300;28;20195;-42
2023/06/24 12:33:25;;;;;;;3.33;2.93;;;24.00;57.10;;;;;;5204090;28;20498;-46
2023/06/24 12:35:58;;;;;;;4.17;3.77;;;23.90;54.10;;;;;;5189996;28;20649;-46
2023/06/24 12:38:29;;;;;;;3.90;3.50;;;24.00;54.40;;;;;;5194258;28;20204;-45
2023/06/24 12:41:00;;;;;;;3.83;3.23;;;24.10;53.40;;;;;;5184095;28;20452;-44
2023/06/24 12:43:32;;;;;;;10.37;4.17;;;24.10;52.80;;;;;;5214050;28;20180;-45
2023/06/24 12:46:03;;;;;;;3.03;2.70;;;24.30;53.00;;;;;;5182347;28;20190;-43
2023/06/24 12:48:34;;;;;;;4.33;3.10;;;24.20;53.40;;;;;;5211838;28;20525;-45
2023/06/24 12:51:04;;;;;;;6.13;3.17;;;24.20;53.60;;;;;;5209602;28;20438;-44
2023/06/24 12:53:35;;;;;;;3.50;3.20;;;24.20;52.80;;;;;;5223259;28;20198;-43
2023/06/24 12:56:06;;;;;;;7.83;3.20;;;24.20;53.00;;;;;;5216276;28;20266;-44
2023/06/24 12:58:37;;;;;;;3.60;3.20;;;24.30;54.20;;;;;;5208487;28;20234;-44
2023/06/24 13:01:08;;;;;;;4.37;4.03;;;24.20;54.40;;;;;;5205616;28;20508;-43
2023/06/24 13:03:38;;;;;;;3.97;3.40;;;24.20;54.70;;;;;;5212326;28;20233;-43
2023/06/24 13:06:09;;;;;;;8.67;3.60;;;24.30;53.90;;;;;;5209980;28;20264;-43